Quincy, WA (98848)

12:22 PM PST on February 14, 2016 (GMT -0800)
NWS Spotter #62 | | Change Station
CLOSE
Current Station
Personal Weather Station
Location: Quincy, WA
Elevation: 1297 ft
Nearby Weather Stations

Elev 1297 ft 47.23 °N, 119.86 °W | Updated 2 seconds ago

Overcast
Overcast
44.8 °F
Feels Like 45 °F
N
0.2
Wind Variable Wind from SSE
Gusts 2.5 mph

Today
High -- | Low -- °F
--% Chance of Precip.
Yesterday
High -- | Low -- °F
Precip. -- in
Pressure 30.14 in
Visibility 10.0 miles
Clouds Overcast 6000 ft
Windchill 45 °F
Dew Point 36 °F
Humidity 71%
Rainfall 0.00 in
Snow Depth Not available.
7:06 AM 5:21 PM
Waxing Crescent, 45% visible
METAR KEPH 141953Z AUTO 06005KT 10SM OVC060 06/04 A3010 RMK AO2 SLP204 T00610039
Pressure 30.14 in
Visibility 10.0 miles
Clouds Overcast 6000 ft
Windchill 45 °F
Dew Point 36 °F
Humidity 71%
Rainfall 0.00 in
Snow Depth Not available.
7:06 AM 5:21 PM
Waxing Crescent, 45% visible
METAR KEPH 141953Z AUTO 06005KT 10SM OVC060 06/04 A3010 RMK AO2 SLP204 T00610039

10-Day Weather Forecast

Almanac

Astronomy

Feb. 14, 2016 Rise Set
Actual Time
Civil Twilight
Nautical Twilight
Astronomical Twilight
Moon
Length of Visible Light
Length of Day
Tomorrow will be .
, % of the Moon is Illuminated

Today's Extremes

State Highs State Lows

Community

WunderPhotos

Upload Photos

1,892,885 photos uploaded!

WunderBlog® & News

Nearby

Air Quality

  Air Quality AQ Index Pollutant
Not available.

Snow Depth

Station Depth Elevation

Earthquake Activity

City Distance Mag. Time & Date
Minimum magnitude displayed is 2.5.

Coastal Water Temperatures

Place Temperature

Stations

Nearby Weather Stations

Station Location Temp. Windchill Dew Point Humidity Wind Precip. Elev Updated Type
                   

Watches & Warnings

There are currently no watches in effect.